Time;durP1;ratioP1;P1;durP2;ratioP2;P2;SDS_P1;SDS_P2;PMS_P1;PMS_P2;Temp;Humidity;BMP_temperature;BMP_pressure;BME280_temperature;BME280_humidity;BME280_pressure;Samples;Min_cycle;Max_cycle;Signal;HPM_P1;HPM_P2
2021/03/15 00:02:07;;;;;;;19.37;2.13;;;;;;;;;;6349075;22;20006;-79
2021/03/15 00:04:33;;;;;;;21.00;2.67;;;;;;;;;;6351558;22;20470;-79
2021/03/15 00:06:59;;;;;;;19.90;3.30;;;;;;;;;;6380550;22;20003;-79
2021/03/15 00:09:25;;;;;;;16.33;2.30;;;;;;;;;;6388113;22;20017;-79
2021/03/15 00:11:53;;;;;;;17.40;2.50;;;;;;;;;;6367075;22;20007;-79
2021/03/15 00:14:19;;;;;;;17.23;2.27;;;;;;;;;;6347328;22;20009;-78
2021/03/15 00:16:45;;;;;;;16.50;2.53;;;;;;;;;;6346081;22;20007;-78
2021/03/15 00:19:11;;;;;;;16.97;2.13;;;;;;;;;;6349516;22;20052;-78
2021/03/15 00:21:37;;;;;;;20.30;4.20;;;;;;;;;;6351064;22;20007;-79
2021/03/15 00:24:03;;;;;;;23.13;2.20;;;;;;;;;;6381931;22;20025;-79
2021/03/15 00:26:29;;;;;;;16.90;2.27;;;;;;;;;;6359221;22;20021;-79
2021/03/15 00:28:55;;;;;;;23.63;3.13;;;;;;;;;;6354404;22;20070;-78
2021/03/15 00:31:21;;;;;;;21.67;2.83;;;;;;;;;;6360633;22;20002;-79
2021/03/15 00:33:47;;;;;;;12.67;2.50;;;;;;;;;;6347271;22;20305;-78
2021/03/15 00:36:13;;;;;;;11.27;2.53;;;;;;;;;;6343916;22;20018;-78
2021/03/15 00:38:39;;;;;;;20.90;2.83;;;;;;;;;;6345241;22;20022;-79
2021/03/15 00:41:05;;;;;;;17.03;2.67;;;;;;;;;;6370318;22;20031;-79
2021/03/15 00:43:31;;;;;;;18.40;2.70;;;;;;;;;;6345419;22;20006;-79
2021/03/15 00:45:57;;;;;;;13.20;2.20;;;;;;;;;;6351767;22;19999;-78
2021/03/15 00:48:23;;;;;;;15.60;2.30;;;;;;;;;;6357543;22;20006;-78
2021/03/15 00:50:49;;;;;;;20.20;3.30;;;;;;;;;;6346197;22;19999;-79
2021/03/15 00:53:15;;;;;;;17.13;2.37;;;;;;;;;;6344647;22;20005;-78
2021/03/15 00:55:41;;;;;;;21.47;2.30;;;;;;;;;;6346761;22;20074;-78
2021/03/15 00:58:07;;;;;;;12.70;1.90;;;;;;;;;;6345153;22;19998;-79
2021/03/15 01:00:37;;;;;;;20.17;2.77;;;;;;;;;;6346067;22;20023;-78
2021/03/15 01:03:03;;;;;;;18.77;2.40;;;;;;;;;;6376170;22;20082;-79
2021/03/15 01:05:32;;;;;;;13.93;1.97;;;;;;;;;;6375016;22;20013;-79
2021/03/15 01:07:58;;;;;;;11.07;2.43;;;;;;;;;;6350008;22;20014;-78
2021/03/15 01:10:25;;;;;;;20.17;2.47;;;;;;;;;;6350308;22;20066;-78
2021/03/15 01:12:51;;;;;;;15.80;1.83;;;;;;;;;;6379208;22;20096;-79
2021/03/15 01:15:18;;;;;;;7.17;1.50;;;;;;;;;;6355069;22;20015;-79
2021/03/15 01:17:45;;;;;;;9.57;1.70;;;;;;;;;;6350011;22;20030;-78
2021/03/15 01:20:11;;;;;;;11.07;1.63;;;;;;;;;;6358697;22;20006;-79
2021/03/15 01:22:37;;;;;;;11.90;1.47;;;;;;;;;;6388358;22;20007;-78
2021/03/15 01:25:04;;;;;;;10.40;1.50;;;;;;;;;;6346088;22;20026;-78
2021/03/15 01:27:30;;;;;;;10.07;2.00;;;;;;;;;;6374191;22;20010;-79
2021/03/15 01:29:56;;;;;;;9.40;1.40;;;;;;;;;;6374361;22;20033;-78
2021/03/15 01:32:22;;;;;;;6.30;1.30;;;;;;;;;;6349017;22;20023;-79
2021/03/15 01:34:48;;;;;;;12.17;1.83;;;;;;;;;;6348446;22;20057;-78
2021/03/15 01:37:15;;;;;;;11.93;2.37;;;;;;;;;;6349348;22;20018;-78
2021/03/15 01:39:41;;;;;;;7.53;1.67;;;;;;;;;;6375756;22;20041;-79
2021/03/15 01:42:07;;;;;;;8.90;1.70;;;;;;;;;;6349017;22;20010;-78
2021/03/15 01:44:33;;;;;;;16.13;1.70;;;;;;;;;;6351554;22;20332;-78
2021/03/15 01:46:59;;;;;;;11.00;2.50;;;;;;;;;;6375899;22;20076;-78
2021/03/15 01:49:25;;;;;;;11.27;1.83;;;;;;;;;;6375496;22;20309;-78
2021/03/15 01:51:52;;;;;;;16.73;2.40;;;;;;;;;;6376969;22;20007;-78
2021/03/15 01:54:18;;;;;;;20.07;2.00;;;;;;;;;;6353232;22;20022;-78
2021/03/15 01:56:45;;;;;;;11.27;2.00;;;;;;;;;;6354800;22;20047;-78
2021/03/15 01:59:13;;;;;;;10.83;2.10;;;;;;;;;;6358038;22;20052;-78
2021/03/15 02:01:39;;;;;;;19.07;2.40;;;;;;;;;;6373300;22;20566;-78
2021/03/15 02:04:05;;;;;;;19.73;2.30;;;;;;;;;;6352795;22;20004;-78
2021/03/15 02:06:31;;;;;;;17.20;3.10;;;;;;;;;;6383995;22;19991;-78
2021/03/15 02:08:57;;;;;;;18.90;2.10;;;;;;;;;;6357051;22;20024;-78
2021/03/15 02:11:33;;;;;;;19.80;3.67;;;;;;;;;;6385273;22;20007;-79
2021/03/15 02:14:08;;;;;;;13.87;2.03;;;;;;;;;;6350697;22;20010;-78
2021/03/15 02:16:33;;;;;;;;;;;;;;;;;;6349556;22;20052;-78
2021/03/15 02:19:06;;;;;;;12.43;1.43;;;;;;;;;;6350916;22;20301;-78
2021/03/15 02:21:32;;;;;;;17.47;2.00;;;;;;;;;;6377025;22;20180;-78
2021/03/15 02:24:08;;;;;;;10.10;2.43;;;;;;;;;;6352620;22;20417;-78
2021/03/15 02:26:43;;;;;;;12.60;1.83;;;;;;;;;;6377309;22;20014;-77
2021/03/15 02:29:28;;;;;;;10.03;1.70;;;;;;;;;;6377304;22;20019;-77
2021/03/15 02:32:07;;;;;;;24.00;3.92;;;;;;;;;;6359214;22;20002;-77
2021/03/15 02:34:45;;;;;;;16.77;2.17;;;;;;;;;;6382267;22;20014;-78
2021/03/15 02:37:13;;;;;;;27.47;5.93;;;;;;;;;;6350151;22;19999;-79
2021/03/15 02:39:41;;;;;;;17.07;1.77;;;;;;;;;;6375292;22;20003;-78
2021/03/15 02:42:10;;;;;;;19.37;2.50;;;;;;;;;;6372773;22;20025;-78
2021/03/15 02:44:36;;;;;;;11.80;1.83;;;;;;;;;;6372143;22;20074;-78
2021/03/15 02:47:03;;;;;;;11.80;2.17;;;;;;;;;;6372932;22;20479;-78
2021/03/15 02:49:30;;;;;;;20.13;2.60;;;;;;;;;;6373066;22;20011;-79
2021/03/15 02:51:58;;;;;;;16.40;2.50;;;;;;;;;;6348179;22;20022;-78
2021/03/15 02:54:24;;;;;;;22.20;2.97;;;;;;;;;;6377735;22;20015;-78
2021/03/15 02:56:51;;;;;;;22.23;3.47;;;;;;;;;;6378219;22;20374;-78
2021/03/15 02:59:18;;;;;;;20.47;3.80;;;;;;;;;;6351020;22;20006;-79
2021/03/15 03:01:45;;;;;;;14.93;2.97;;;;;;;;;;6368667;22;20007;-78
2021/03/15 03:04:12;;;;;;;15.63;3.53;;;;;;;;;;6342735;22;20003;-79
2021/03/15 03:06:40;;;;;;;29.70;3.63;;;;;;;;;;6340706;22;20098;-79
2021/03/15 03:09:07;;;;;;;12.47;2.80;;;;;;;;;;6366744;22;20010;-78
2021/03/15 03:11:34;;;;;;;15.97;2.90;;;;;;;;;;6366961;22;20040;-78
2021/03/15 03:14:00;;;;;;;16.70;2.60;;;;;;;;;;6366697;22;20007;-78
2021/03/15 03:16:28;;;;;;;15.63;2.63;;;;;;;;;;6366719;22;20006;-78
2021/03/15 03:18:55;;;;;;;16.20;3.73;;;;;;;;;;6366871;22;20010;-78
2021/03/15 03:21:22;;;;;;;13.40;2.80;;;;;;;;;;6340576;22;20094;-78
2021/03/15 03:23:52;;;;;;;17.83;2.20;;;;;;;;;;6341836;22;20074;-78
2021/03/15 03:26:22;;;;;;;15.13;2.57;;;;;;;;;;6370513;22;20495;-77
2021/03/15 03:28:49;;;;;;;11.97;2.40;;;;;;;;;;6346537;22;20014;-78
2021/03/15 03:31:17;;;;;;;16.20;3.07;;;;;;;;;;6372206;22;20015;-78
2021/03/15 03:33:43;;;;;;;15.77;2.63;;;;;;;;;;6345671;22;20007;-79
2021/03/15 03:36:09;;;;;;;17.70;2.70;;;;;;;;;;6348558;22;20052;-77
2021/03/15 03:38:35;;;;;;;10.23;2.23;;;;;;;;;;6346933;22;20053;-78
2021/03/15 03:41:01;;;;;;;15.30;2.67;;;;;;;;;;6354710;22;20007;-78
2021/03/15 03:43:27;;;;;;;16.20;3.10;;;;;;;;;;6348211;22;20068;-77
2021/03/15 03:45:53;;;;;;;13.03;2.37;;;;;;;;;;6342730;22;20014;-78
2021/03/15 03:48:19;;;;;;;17.67;2.63;;;;;;;;;;6367704;22;20018;-78
2021/03/15 03:50:45;;;;;;;16.57;2.63;;;;;;;;;;6344348;22;20003;-78
2021/03/15 03:53:13;;;;;;;13.23;1.90;;;;;;;;;;6341913;22;20040;-79
2021/03/15 03:55:47;;;;;;;13.33;2.47;;;;;;;;;;6368297;22;20011;-78
2021/03/15 03:58:15;;;;;;;11.53;2.77;;;;;;;;;;6344322;22;20003;-78
2021/03/15 04:00:41;;;;;;;14.53;2.60;;;;;;;;;;6345477;22;20404;-78
2021/03/15 04:03:14;;;;;;;11.67;1.77;;;;;;;;;;6369835;22;20393;-78
2021/03/15 04:05:42;;;;;;;14.20;3.50;;;;;;;;;;6370935;22;20017;-78
2021/03/15 04:08:10;;;;;;;23.20;3.00;;;;;;;;;;6373302;22;20003;-78
2021/03/15 04:10:36;;;;;;;20.67;2.70;;;;;;;;;;6374556;22;20091;-78
2021/03/15 04:13:04;;;;;;;14.77;1.90;;;;;;;;;;6373450;22;20305;-78
2021/03/15 04:15:31;;;;;;;12.00;2.10;;;;;;;;;;6349165;22;20003;-77
2021/03/15 04:17:58;;;;;;;13.57;1.77;;;;;;;;;;6352337;22;20028;-77
2021/03/15 04:20:36;;;;;;;11.87;2.17;;;;;;;;;;6350172;22;20011;-77
2021/03/15 04:23:03;;;;;;;22.33;2.60;;;;;;;;;;6354801;22;19999;-78
2021/03/15 04:25:32;;;;;;;16.63;2.37;;;;;;;;;;6375088;22;20498;-77
2021/03/15 04:27:59;;;;;;;20.07;3.17;;;;;;;;;;6376761;22;20019;-77
2021/03/15 04:30:25;;;;;;;15.20;1.83;;;;;;;;;;6348969;22;20007;-78
2021/03/15 04:32:53;;;;;;;19.50;1.93;;;;;;;;;;6367666;22;20009;-77
2021/03/15 04:35:37;;;;;;;17.60;2.73;;;;;;;;;;6341450;22;20316;-78
2021/03/15 04:38:08;;;;;;;18.98;2.47;;;;;;;;;;6366512;22;20013;-78
2021/03/15 04:40:35;;;;;;;18.03;2.30;;;;;;;;;;6341145;22;20086;-77
2021/03/15 04:43:01;;;;;;;21.60;3.23;;;;;;;;;;6342724;22;19999;-78
2021/03/15 04:45:32;;;;;;;10.10;1.60;;;;;;;;;;6343376;22;20006;-77
2021/03/15 04:48:04;;;;;;;13.83;2.13;;;;;;;;;;6368614;22;20022;-77
2021/03/15 04:50:30;;;;;;;9.90;1.70;;;;;;;;;;6345324;22;20001;-77
2021/03/15 04:52:56;;;;;;;17.43;2.30;;;;;;;;;;6380277;22;20003;-77
2021/03/15 04:55:25;;;;;;;27.70;2.87;;;;;;;;;;6341969;22;20019;-78
2021/03/15 04:57:51;;;;;;;13.90;2.20;;;;;;;;;;6342489;22;20022;-78
2021/03/15 05:00:18;;;;;;;20.47;3.10;;;;;;;;;;6342179;22;20011;-78
2021/03/15 05:02:45;;;;;;;22.13;2.63;;;;;;;;;;6345413;22;20006;-78
2021/03/15 05:05:14;;;;;;;23.83;3.40;;;;;;;;;;6349638;22;19999;-78
2021/03/15 05:07:42;;;;;;;30.90;2.87;;;;;;;;;;6349710;22;20074;-77
2021/03/15 05:10:08;;;;;;;21.17;1.97;;;;;;;;;;6374131;22;20007;-77
2021/03/15 05:12:34;;;;;;;21.03;2.37;;;;;;;;;;6347786;22;20010;-79
2021/03/15 05:15:00;;;;;;;17.47;2.03;;;;;;;;;;6371587;22;20019;-78
2021/03/15 05:17:27;;;;;;;16.93;2.90;;;;;;;;;;6373648;22;20007;-78
2021/03/15 05:19:54;;;;;;;27.00;3.07;;;;;;;;;;6374993;22;20018;-78
2021/03/15 05:22:20;;;;;;;24.07;3.70;;;;;;;;;;6373132;22;20070;-78
2021/03/15 05:24:46;;;;;;;21.13;3.83;;;;;;;;;;6373251;22;20337;-77
2021/03/15 05:27:13;;;;;;;21.90;2.43;;;;;;;;;;6348271;22;20070;-78
2021/03/15 05:29:40;;;;;;;29.17;3.50;;;;;;;;;;6346739;22;20379;-77
2021/03/15 05:32:06;;;;;;;26.83;2.63;;;;;;;;;;6347300;22;20014;-78
2021/03/15 05:34:33;;;;;;;13.20;2.07;;;;;;;;;;6348005;22;20513;-77
2021/03/15 05:36:59;;;;;;;29.27;3.10;;;;;;;;;;6348361;22;20007;-77
2021/03/15 05:39:26;;;;;;;23.53;3.87;;;;;;;;;;6376100;22;20188;-77
2021/03/15 05:41:58;;;;;;;32.10;2.93;;;;;;;;;;6348811;22;20007;-77
2021/03/15 05:44:43;;;;;;;24.37;3.33;;;;;;;;;;6374631;22;20392;-77
2021/03/15 05:47:28;;;;;;;24.35;4.18;;;;;;;;;;6375016;22;20009;-78
2021/03/15 05:50:02;;;;;;;30.50;4.65;;;;;;;;;;6373928;22;20041;-78
2021/03/15 05:52:44;;;;;;;31.55;4.50;;;;;;;;;;6351881;22;20025;-78
2021/03/15 05:55:13;;;;;;;27.30;3.60;;;;;;;;;;6379460;22;20018;-77
2021/03/15 05:57:45;;;;;;;28.00;3.07;;;;;;;;;;6378459;22;20391;-78
2021/03/15 06:00:11;;;;;;;23.70;3.20;;;;;;;;;;6376103;22;20011;-76
2021/03/15 06:02:56;;;;;;;27.83;3.73;;;;;;;;;;6382279;22;19999;-77
2021/03/15 06:05:26;;;;;;;31.13;3.92;;;;;;;;;;6380794;22;20003;-77
2021/03/15 06:08:12;;;;;;;26.10;3.53;;;;;;;;;;6380107;22;20060;-77
2021/03/15 06:10:57;;;;;;;18.27;2.40;;;;;;;;;;6333430;22;20007;-80
2021/03/15 06:13:23;;;;;;;;;;;;;;;;;;6356562;22;20006;-79
2021/03/15 06:15:50;;;;;;;26.40;3.67;;;;;;;;;;6384499;22;19906;-79
2021/03/15 06:18:16;;;;;;;24.53;4.87;;;;;;;;;;6357993;22;20018;-78
2021/03/15 06:20:44;;;;;;;33.53;4.03;;;;;;;;;;6384216;22;20006;-80
2021/03/15 06:23:10;;;;;;;28.13;4.47;;;;;;;;;;6359593;22;20018;-79
2021/03/15 06:25:36;;;;;;;37.43;4.20;;;;;;;;;;6358362;22;20003;-79
2021/03/15 06:28:03;;;;;;;28.37;3.97;;;;;;;;;;6358450;22;19995;-79
2021/03/15 06:30:30;;;;;;;25.83;3.10;;;;;;;;;;6357062;22;20068;-78
2021/03/15 06:32:57;;;;;;;36.93;4.23;;;;;;;;;;6353840;22;20003;-79
2021/03/15 06:35:28;;;;;;;23.83;3.37;;;;;;;;;;6352897;22;20011;-80
2021/03/15 06:38:00;;;;;;;26.23;3.60;;;;;;;;;;6380123;22;20034;-79
2021/03/15 06:40:26;;;;;;;21.87;2.53;;;;;;;;;;6375773;22;20006;-79
2021/03/15 06:42:53;;;;;;;29.83;3.93;;;;;;;;;;6347378;22;20003;-79
2021/03/15 06:45:19;;;;;;;21.07;3.30;;;;;;;;;;6374207;22;20007;-79
2021/03/15 06:47:46;;;;;;;29.87;4.43;;;;;;;;;;6374729;22;20034;-79
2021/03/15 06:50:12;;;;;;;28.07;4.00;;;;;;;;;;6346942;22;20002;-80
2021/03/15 06:52:54;;;;;;;30.07;4.00;;;;;;;;;;6347120;22;20014;-79
2021/03/15 06:55:20;;;;;;;23.33;3.03;;;;;;;;;;6374956;22;20007;-79
2021/03/15 06:57:46;;;;;;;22.20;4.97;;;;;;;;;;6372449;22;19999;-80
2021/03/15 07:00:12;;;;;;;21.10;2.70;;;;;;;;;;6374093;22;20430;-79
2021/03/15 07:02:38;;;;;;;25.73;3.53;;;;;;;;;;6375268;22;20404;-79
2021/03/15 07:05:12;;;;;;;31.20;4.93;;;;;;;;;;6374610;22;20013;-79
2021/03/15 07:07:38;;;;;;;24.20;3.70;;;;;;;;;;6375189;22;20438;-79
2021/03/15 07:10:14;;;;;;;22.70;3.20;;;;;;;;;;6351851;22;20011;-78
2021/03/15 07:12:40;;;;;;;34.67;5.80;;;;;;;;;;6376611;22;20007;-79
2021/03/15 07:15:07;;;;;;;26.07;5.10;;;;;;;;;;6347326;22;20006;-81
2021/03/15 07:17:33;;;;;;;25.50;4.50;;;;;;;;;;6341890;22;20071;-79
2021/03/15 07:19:59;;;;;;;28.10;4.17;;;;;;;;;;6342350;22;20007;-79
2021/03/15 07:22:26;;;;;;;22.30;3.60;;;;;;;;;;6367444;22;20034;-79
2021/03/15 07:25:15;;;;;;;29.67;3.97;;;;;;;;;;6366808;22;20033;-79
2021/03/15 07:27:43;;;;;;;17.30;2.87;;;;;;;;;;6365862;22;20007;-78
2021/03/15 07:30:28;;;;;;;20.37;2.00;;;;;;;;;;6365544;22;20454;-78
2021/03/15 07:33:02;;;;;;;21.40;2.97;;;;;;;;;;6340488;22;20023;-76
2021/03/15 07:35:29;;;;;;;31.37;4.67;;;;;;;;;;6366372;22;20014;-78
2021/03/15 07:37:56;;;;;;;32.37;3.63;;;;;;;;;;6342143;22;20060;-77
2021/03/15 07:40:29;;;;;;;25.73;3.33;;;;;;;;;;6366019;22;20090;-79
2021/03/15 07:42:59;;;;;;;27.23;3.93;;;;;;;;;;6366091;22;20006;-77
2021/03/15 07:45:32;;;;;;;27.77;3.23;;;;;;;;;;6340538;22;20007;-78
2021/03/15 07:48:04;;;;;;;18.37;3.00;;;;;;;;;;6366214;22;20007;-77
2021/03/15 07:50:30;;;;;;;32.20;5.80;;;;;;;;;;6373949;22;20010;-77
2021/03/15 07:52:56;;;;;;;26.57;5.37;;;;;;;;;;6346159;22;19999;-78
2021/03/15 07:55:39;;;;;;;19.47;2.37;;;;;;;;;;6347125;22;20015;-78
2021/03/15 07:58:32;;;;;;;28.40;3.53;;;;;;;;;;6347283;22;20046;-79
2021/03/15 08:00:58;;;;;;;19.10;3.07;;;;;;;;;;6344301;22;20010;-78
2021/03/15 08:03:25;;;;;;;22.67;2.60;;;;;;;;;;6374990;22;20014;-78
2021/03/15 08:05:51;;;;;;;14.97;2.00;;;;;;;;;;6373853;22;20002;-79
2021/03/15 08:08:18;;;;;;;18.97;2.83;;;;;;;;;;6344509;22;20488;-79
2021/03/15 08:10:44;;;;;;;22.93;2.50;;;;;;;;;;6369509;22;20332;-78
2021/03/15 08:13:14;;;;;;;24.87;3.53;;;;;;;;;;6368396;22;20013;-78
2021/03/15 08:15:40;;;;;;;22.07;2.87;;;;;;;;;;6343236;22;20010;-78
2021/03/15 08:18:11;;;;;;;26.20;3.00;;;;;;;;;;6343264;22;20006;-78
2021/03/15 08:20:41;;;;;;;28.87;3.10;;;;;;;;;;6367733;22;20098;-79
2021/03/15 08:23:09;;;;;;;24.50;2.73;;;;;;;;;;6369091;22;20007;-78
2021/03/15 08:25:36;;;;;;;29.17;3.67;;;;;;;;;;6348503;22;20034;-77
2021/03/15 08:28:04;;;;;;;28.73;3.40;;;;;;;;;;6372310;22;20019;-78
2021/03/15 08:30:31;;;;;;;27.33;3.77;;;;;;;;;;6368037;22;20396;-77
2021/03/15 08:32:58;;;;;;;8.43;1.40;;;;;;;;;;6366918;22;20010;-77
2021/03/15 08:35:24;;;;;;;23.67;3.13;;;;;;;;;;6365708;22;20034;-77
2021/03/15 08:37:55;;;;;;;28.10;2.83;;;;;;;;;;6372328;22;20044;-77
2021/03/15 08:40:40;;;;;;;27.63;3.70;;;;;;;;;;6367657;22;20009;-76
2021/03/15 08:43:18;;;;;;;23.95;3.22;;;;;;;;;;6375833;22;20026;-77
2021/03/15 08:45:48;;;;;;;14.33;2.30;;;;;;;;;;6372029;22;20159;-78
2021/03/15 08:48:15;;;;;;;22.03;3.07;;;;;;;;;;6342241;22;20006;-77
2021/03/15 08:50:41;;;;;;;35.53;5.50;;;;;;;;;;6341208;22;20322;-78
2021/03/15 08:53:09;;;;;;;25.93;3.90;;;;;;;;;;6367641;22;20002;-78
2021/03/15 08:55:41;;;;;;;26.20;3.00;;;;;;;;;;6368581;22;20010;-78
2021/03/15 08:58:45;;;;;;;29.97;3.40;;;;;;;;;;6370237;22;20455;-77
2021/03/15 09:01:16;;;;;;;29.63;3.07;;;;;;;;;;6256336;22;20426;-77
2021/03/15 09:03:52;;;;;;;21.40;3.77;;;;;;;;;;6285288;22;20004;-78
2021/03/15 09:06:33;;;;;;;33.87;4.93;;;;;;;;;;6325360;22;20014;-77
2021/03/15 09:09:00;;;;;;;22.17;3.80;;;;;;;;;;6367295;22;20060;-76
2021/03/15 09:11:35;;;;;;;21.67;4.00;;;;;;;;;;6343350;22;20014;-77
2021/03/15 09:14:17;;;;;;;26.17;3.67;;;;;;;;;;6342617;22;20435;-77
2021/03/15 09:16:44;;;;;;;23.13;3.03;;;;;;;;;;6342822;22;20007;-78
2021/03/15 09:19:19;;;;;;;28.50;2.97;;;;;;;;;;6341851;22;20010;-77
2021/03/15 09:21:46;;;;;;;22.87;3.07;;;;;;;;;;6368622;22;20007;-78
2021/03/15 09:24:30;;;;;;;11.83;1.80;;;;;;;;;;6342240;22;20011;-78
2021/03/15 09:26:56;;;;;;;18.25;2.47;;;;;;;;;;6365927;22;20014;-77
2021/03/15 09:29:22;;;;;;;17.13;2.47;;;;;;;;;;6340760;22;20015;-78
2021/03/15 09:31:58;;;;;;;20.63;2.80;;;;;;;;;;6340617;22;20006;-77
2021/03/15 09:34:24;;;;;;;29.70;4.07;;;;;;;;;;6367983;22;20021;-77
2021/03/15 09:36:51;;;;;;;19.53;3.13;;;;;;;;;;6316004;22;20015;-76
2021/03/15 09:39:19;;;;;;;20.53;2.80;;;;;;;;;;6348595;22;20033;-77
2021/03/15 09:41:48;;;;;;;19.17;1.77;;;;;;;;;;6342376;22;20052;-77
2021/03/15 09:44:14;;;;;;;23.03;3.80;;;;;;;;;;6365206;22;20063;-77
2021/03/15 09:46:40;;;;;;;16.80;2.67;;;;;;;;;;6365426;22;20006;-78
2021/03/15 09:49:06;;;;;;;23.60;3.20;;;;;;;;;;6365965;22;20016;-78
2021/03/15 09:51:32;;;;;;;19.23;2.77;;;;;;;;;;6341320;22;20024;-77
2021/03/15 09:53:58;;;;;;;12.07;1.77;;;;;;;;;;6343395;22;20323;-76
2021/03/15 09:56:25;;;;;;;22.60;2.90;;;;;;;;;;6347642;22;20103;-76
2021/03/15 09:58:51;;;;;;;24.17;2.63;;;;;;;;;;6370344;22;20101;-76
2021/03/15 10:01:17;;;;;;;13.57;1.90;;;;;;;;;;6347947;22;20003;-76
2021/03/15 10:03:51;;;;;;;24.53;3.47;;;;;;;;;;6371789;22;20424;-77
2021/03/15 10:06:17;;;;;;;;;;;;;;;;;;6368902;22;20018;-78
2021/03/15 10:08:50;;;;;;;13.83;1.80;;;;;;;;;;6366987;22;19902;-77
2021/03/15 10:11:16;;;;;;;21.87;3.33;;;;;;;;;;6345048;22;20340;-77
2021/03/15 10:13:42;;;;;;;16.93;2.47;;;;;;;;;;6342327;22;20011;-76
2021/03/15 10:16:08;;;;;;;19.37;3.90;;;;;;;;;;6368319;22;20066;-77
2021/03/15 10:18:34;;;;;;;17.67;2.43;;;;;;;;;;6367676;22;20019;-77
2021/03/15 10:21:00;;;;;;;17.93;2.07;;;;;;;;;;6343414;22;19999;-77
2021/03/15 10:23:32;;;;;;;21.90;2.77;;;;;;;;;;6368080;22;20003;-77
2021/03/15 10:25:59;;;;;;;13.67;3.20;;;;;;;;;;6343004;22;20428;-78
2021/03/15 10:28:26;;;;;;;16.20;2.83;;;;;;;;;;6368402;22;20432;-77
2021/03/15 10:30:52;;;;;;;23.97;4.10;;;;;;;;;;6347448;22;20003;-77
2021/03/15 10:33:18;;;;;;;25.27;4.60;;;;;;;;;;6374744;22;20355;-77
2021/03/15 10:35:45;;;;;;;25.90;3.23;;;;;;;;;;6375776;22;20428;-76
2021/03/15 10:38:12;;;;;;;31.67;4.50;;;;;;;;;;6352568;22;20041;-76
2021/03/15 10:40:38;;;;;;;29.67;3.77;;;;;;;;;;6352743;22;20428;-76
2021/03/15 10:43:05;;;;;;;25.20;4.03;;;;;;;;;;6353201;22;20011;-77
2021/03/15 10:45:31;;;;;;;30.07;3.87;;;;;;;;;;6377420;22;20014;-76
2021/03/15 10:48:05;;;;;;;26.17;3.53;;;;;;;;;;6375016;22;20007;-78
2021/03/15 10:50:32;;;;;;;30.43;4.53;;;;;;;;;;6349109;22;20010;-77
2021/03/15 10:53:10;;;;;;;30.93;3.90;;;;;;;;;;6378080;22;20059;-76
2021/03/15 10:55:36;;;;;;;15.17;2.57;;;;;;;;;;6372257;22;20090;-76
2021/03/15 10:58:09;;;;;;;24.97;3.63;;;;;;;;;;6346360;22;20015;-77
2021/03/15 11:00:37;;;;;;;23.50;3.10;;;;;;;;;;6372621;22;20100;-77
2021/03/15 11:03:03;;;;;;;25.50;3.50;;;;;;;;;;6348988;22;19995;-76
2021/03/15 11:05:29;;;;;;;17.50;3.00;;;;;;;;;;6346608;22;20010;-77
2021/03/15 11:07:56;;;;;;;12.13;1.73;;;;;;;;;;6345198;22;19999;-76
2021/03/15 11:10:26;;;;;;;22.13;2.40;;;;;;;;;;6344668;22;20371;-76
2021/03/15 11:12:54;;;;;;;18.13;2.90;;;;;;;;;;6342784;22;19999;-75
2021/03/15 11:15:32;;;;;;;26.97;3.43;;;;;;;;;;6370338;22;20014;-76
2021/03/15 11:17:58;;;;;;;28.20;3.67;;;;;;;;;;6371963;22;20302;-77
2021/03/15 11:20:43;;;;;;;25.03;3.07;;;;;;;;;;6375826;22;20374;-77
2021/03/15 11:23:09;;;;;;;17.95;2.95;;;;;;;;;;6376194;22;20321;-77
2021/03/15 11:25:35;;;;;;;22.13;3.60;;;;;;;;;;6349420;22;20069;-78
2021/03/15 11:28:03;;;;;;;15.88;2.85;;;;;;;;;;6350235;22;20011;-77
2021/03/15 11:30:29;;;;;;;19.10;3.13;;;;;;;;;;6384087;22;20002;-77
2021/03/15 11:33:22;;;;;;;27.73;3.80;;;;;;;;;;6381240;22;20040;-79
2021/03/15 11:35:48;;;;;;;32.75;2.78;;;;;;;;;;6354964;22;20006;-77
2021/03/15 11:38:14;;;;;;;36.87;5.57;;;;;;;;;;6379727;22;20066;-77
2021/03/15 11:40:41;;;;;;;27.50;5.00;;;;;;;;;;6352890;22;20011;-77
2021/03/15 11:43:08;;;;;;;27.42;4.15;;;;;;;;;;6372424;22;20425;-78
2021/03/15 11:45:35;;;;;;;25.27;2.83;;;;;;;;;;6372693;22;20014;-79
2021/03/15 11:48:02;;;;;;;26.90;4.45;;;;;;;;;;6348072;22;20039;-79
2021/03/15 11:50:28;;;;;;;32.25;6.72;;;;;;;;;;6377363;22;20038;-77
2021/03/15 11:52:54;;;;;;;29.05;4.93;;;;;;;;;;6350609;22;20037;-78
2021/03/15 11:55:21;;;;;;;19.03;3.03;;;;;;;;;;6348694;22;20477;-77
2021/03/15 11:57:47;;;;;;;22.47;2.67;;;;;;;;;;6351229;22;20003;-78
2021/03/15 12:00:14;;;;;;;25.07;3.10;;;;;;;;;;6351272;22;20014;-78
2021/03/15 12:02:40;;;;;;;24.50;3.80;;;;;;;;;;6356757;22;20014;-80
2021/03/15 12:05:09;;;;;;;31.07;3.80;;;;;;;;;;6359434;22;20010;-79
2021/03/15 12:07:35;;;;;;;27.45;4.60;;;;;;;;;;6388222;22;20002;-80
2021/03/15 12:10:01;;;;;;;28.55;4.18;;;;;;;;;;6389187;22;20006;-79
2021/03/15 12:12:27;;;;;;;26.92;4.57;;;;;;;;;;6362965;22;20017;-80
2021/03/15 12:14:54;;;;;;;28.85;4.68;;;;;;;;;;6357085;22;20468;-78
2021/03/15 12:17:21;;;;;;;19.75;3.55;;;;;;;;;;6384076;22;20009;-79
2021/03/15 12:19:47;;;;;;;14.20;2.40;;;;;;;;;;6356657;22;20007;-79
2021/03/15 12:22:13;;;;;;;25.70;3.70;;;;;;;;;;6373746;22;20017;-79
2021/03/15 12:24:39;;;;;;;25.27;4.90;;;;;;;;;;6350154;22;20011;-79
2021/03/15 12:27:05;;;;;;;26.30;4.25;;;;;;;;;;6372630;22;20003;-80
2021/03/15 12:29:32;;;;;;;31.95;5.97;;;;;;;;;;6377711;22;20019;-80
2021/03/15 12:32:16;;;;;;;37.10;5.68;;;;;;;;;;6360060;22;20062;-80
2021/03/15 12:34:42;;;;;;;26.25;3.67;;;;;;;;;;6382094;22;20007;-79
2021/03/15 12:37:08;;;;;;;25.75;4.72;;;;;;;;;;6350484;22;20026;-80
2021/03/15 12:39:34;;;;;;;13.90;2.22;;;;;;;;;;6353968;22;20019;-80
2021/03/15 12:45:05;;;;;;;10.98;1.85;;;;;;;;;;6351351;22;20013;-79
2021/03/15 12:47:31;;;;;;;15.18;2.13;;;;;;;;;;6348208;22;20018;-81
2021/03/15 12:49:57;;;;;;;14.55;2.47;;;;;;;;;;6346519;22;20019;-78
2021/03/15 12:52:23;;;;;;;18.45;4.50;;;;;;;;;;6348016;22;20026;-79
2021/03/15 12:54:49;;;;;;;15.50;2.72;;;;;;;;;;6370776;22;20101;-81
2021/03/15 12:57:52;;;;;;;22.13;3.88;;;;;;;;;;6348100;22;20020;-79
2021/03/15 13:00:42;;;;;;;23.90;4.97;;;;;;;;;;6348737;22;20017;-79
2021/03/15 13:03:08;;;;;;;34.28;4.80;;;;;;;;;;6374322;22;20005;-79
2021/03/15 13:05:34;;;;;;;32.08;5.82;;;;;;;;;;6349465;22;20385;-80
2021/03/15 13:08:00;;;;;;;34.33;5.90;;;;;;;;;;6354661;22;20325;-79
2021/03/15 13:11:03;;;;;;;29.52;5.13;;;;;;;;;;6353049;22;20011;-79
2021/03/15 13:13:29;;;;;;;32.75;4.93;;;;;;;;;;6383062;22;20007;-80
2021/03/15 13:16:01;;;;;;;29.80;5.38;;;;;;;;;;6362865;22;20018;-79
2021/03/15 13:18:27;;;;;;;32.05;5.13;;;;;;;;;;6361714;22;20026;-79
2021/03/15 13:20:53;;;;;;;24.55;3.60;;;;;;;;;;6387064;22;20007;-78
2021/03/15 13:23:31;;;;;;;33.72;4.85;;;;;;;;;;6364000;22;20022;-80
2021/03/15 13:26:31;;;;;;;30.10;5.18;;;;;;;;;;6353917;22;20007;-78
2021/03/15 13:28:57;;;;;;;25.63;3.88;;;;;;;;;;6353921;22;19994;-79
2021/03/15 13:31:23;;;;;;;26.42;4.20;;;;;;;;;;6352922;22;20037;-78
2021/03/15 13:33:49;;;;;;;32.05;4.70;;;;;;;;;;6349512;22;20011;-78
2021/03/15 13:36:15;;;;;;;30.88;3.92;;;;;;;;;;6350545;22;20011;-78
2021/03/15 13:38:41;;;;;;;25.52;5.05;;;;;;;;;;6375891;22;20034;-78
2021/03/15 13:41:07;;;;;;;28.38;5.50;;;;;;;;;;6351788;22;20011;-79
2021/03/15 13:43:33;;;;;;;28.67;4.20;;;;;;;;;;6359088;22;20011;-78
2021/03/15 13:45:59;;;;;;;30.58;5.20;;;;;;;;;;6356133;22;19999;-78
2021/03/15 13:48:26;;;;;;;30.27;4.68;;;;;;;;;;6366112;22;20005;-79
2021/03/15 13:50:52;;;;;;;36.72;7.38;;;;;;;;;;6367063;22;20033;-79
2021/03/15 13:53:18;;;;;;;36.03;6.55;;;;;;;;;;6339950;22;20009;-81
2021/03/15 13:55:44;;;;;;;40.00;5.97;;;;;;;;;;6367561;22;20027;-78
2021/03/15 13:58:10;;;;;;;33.58;5.13;;;;;;;;;;6389901;22;20424;-78
2021/03/15 14:00:38;;;;;;;35.10;5.00;;;;;;;;;;6386702;22;20007;-80
2021/03/15 14:03:04;;;;;;;32.35;4.78;;;;;;;;;;6372832;22;20011;-80
2021/03/15 14:05:30;;;;;;;32.72;5.50;;;;;;;;;;6348418;22;20002;-79
2021/03/15 14:07:56;;;;;;;34.47;6.68;;;;;;;;;;6344096;22;20336;-79
2021/03/15 14:10:22;;;;;;;33.70;4.82;;;;;;;;;;6344016;22;20006;-79
2021/03/15 14:12:48;;;;;;;38.35;5.65;;;;;;;;;;6345895;22;20325;-79
2021/03/15 14:15:14;;;;;;;30.98;5.07;;;;;;;;;;6345859;22;20018;-79
2021/03/15 14:17:40;;;;;;;37.67;7.22;;;;;;;;;;6350939;22;20068;-79
2021/03/15 14:20:07;;;;;;;38.45;6.25;;;;;;;;;;6382789;22;20007;-81
2021/03/15 14:22:33;;;;;;;35.22;5.05;;;;;;;;;;6377576;22;20019;-78
2021/03/15 14:25:00;;;;;;;34.65;5.18;;;;;;;;;;6375810;22;20018;-80
2021/03/15 14:27:26;;;;;;;41.53;6.88;;;;;;;;;;6383883;22;20007;-78
2021/03/15 14:29:52;;;;;;;27.00;5.38;;;;;;;;;;6366571;22;20010;-79
2021/03/15 14:32:18;;;;;;;34.53;6.15;;;;;;;;;;6355440;22;20006;-78
2021/03/15 14:34:44;;;;;;;35.20;6.57;;;;;;;;;;6372459;22;20042;-79
2021/03/15 14:37:11;;;;;;;24.55;4.47;;;;;;;;;;6371597;22;20041;-78
2021/03/15 14:39:37;;;;;;;31.75;4.78;;;;;;;;;;6371662;22;20022;-78
2021/03/15 14:42:03;;;;;;;29.80;5.10;;;;;;;;;;6372231;22;20003;-78
2021/03/15 14:44:29;;;;;;;33.33;5.13;;;;;;;;;;6322002;22;20007;-79